createdAt,value
2019-03-23T00:01:06.022Z,45.70
2019-03-23T00:03:41.878Z,45.65
2019-03-23T00:06:17.766Z,46.60
2019-03-23T00:08:53.618Z,48.42
2019-03-23T00:11:29.657Z,51.55
2019-03-23T00:14:05.493Z,52.60
2019-03-23T00:16:41.358Z,49.65
2019-03-23T00:19:17.209Z,53.92
2019-03-23T00:21:53.060Z,51.02
2019-03-23T00:24:30.637Z,50.75
2019-03-23T00:27:06.883Z,52.13
2019-03-23T00:29:42.872Z,53.70
2019-03-23T00:32:18.897Z,52.98
2019-03-23T00:34:54.799Z,54.67
2019-03-23T00:37:30.637Z,53.28
2019-03-23T00:40:08.851Z,55.35
2019-03-23T00:42:44.709Z,54.08
2019-03-23T00:45:20.674Z,55.70
2019-03-23T00:47:56.521Z,57.62
2019-03-23T00:50:32.379Z,57.53
2019-03-23T00:53:08.233Z,56.08
2019-03-23T00:55:44.088Z,56.90
2019-03-23T00:58:19.932Z,58.45
2019-03-23T01:00:55.786Z,56.77
2019-03-23T01:03:31.643Z,59.03
2019-03-23T01:06:07.548Z,60.03
2019-03-23T01:08:43.351Z,59.85
2019-03-23T01:11:19.401Z,60.08
2019-03-23T01:13:56.140Z,63.70
2019-03-23T01:16:31.909Z,63.23
2019-03-23T01:19:07.794Z,64.27
2019-03-23T01:21:43.637Z,61.98
2019-03-23T01:24:19.441Z,63.48
2019-03-23T01:26:55.267Z,64.12
2019-03-23T01:29:31.105Z,63.92
2019-03-23T01:32:06.953Z,64.22
2019-03-23T01:34:43.114Z,64.58
2019-03-23T01:37:18.863Z,63.73
2019-03-23T01:39:54.937Z,64.35
2019-03-23T01:42:30.698Z,64.47
2019-03-23T01:45:09.304Z,62.20
2019-03-23T01:47:45.658Z,61.28
2019-03-23T01:50:21.521Z,61.43
2019-03-23T01:52:57.379Z,60.50
2019-03-23T01:55:33.246Z,59.08
2019-03-23T01:58:09.069Z,62.67
2019-03-23T02:00:44.925Z,63.40
2019-03-23T02:03:21.155Z,60.23
2019-03-23T02:05:57.044Z,60.90
2019-03-23T02:08:33.146Z,59.95
2019-03-23T02:11:09.432Z,62.10
2019-03-23T02:13:45.338Z,61.70
2019-03-23T02:16:21.279Z,59.45
2019-03-23T02:18:57.237Z,63.65
2019-03-23T02:21:33.096Z,63.13
2019-03-23T02:24:08.946Z,62.85
2019-03-23T02:26:44.796Z,64.17
2019-03-23T02:29:20.655Z,63.42
2019-03-23T02:31:56.517Z,60.88
2019-03-23T02:34:32.366Z,62.38
2019-03-23T02:37:08.132Z,62.67
2019-03-23T02:39:43.963Z,63.63
2019-03-23T02:42:19.820Z,62.93
2019-03-23T02:44:55.679Z,62.48
2019-03-23T02:47:31.543Z,62.88
2019-03-23T02:50:09.686Z,63.05
2019-03-23T02:52:45.521Z,62.08
2019-03-23T02:55:21.281Z,63.80
2019-03-23T02:57:57.210Z,66.60
2019-03-23T03:00:33.057Z,65.28
2019-03-23T03:03:08.916Z,66.35
2019-03-23T03:05:45.682Z,64.22
2019-03-23T03:08:21.805Z,66.92
2019-03-23T03:10:57.905Z,69.37
2019-03-23T03:13:33.708Z,70.67
2019-03-23T03:16:09.625Z,78.02
2019-03-23T03:18:45.480Z,83.07
2019-03-23T03:21:21.316Z,89.87
2019-03-23T03:23:57.493Z,93.82
2019-03-23T03:26:33.757Z,94.30
2019-03-23T03:29:09.593Z,96.85
2019-03-23T03:31:45.465Z,93.35
2019-03-23T03:34:21.317Z,92.45
2019-03-23T03:36:57.114Z,90.50
2019-03-23T03:39:32.911Z,90.25
2019-03-23T03:42:08.776Z,84.22
2019-03-23T03:44:44.623Z,84.20
2019-03-23T03:47:20.468Z,84.47
2019-03-23T03:49:56.365Z,82.05
2019-03-23T03:52:32.281Z,84.20
2019-03-23T03:55:09.683Z,86.82
2019-03-23T03:57:45.457Z,83.75
2019-03-23T04:00:22.094Z,82.27
2019-03-23T04:02:57.969Z,82.90
2019-03-23T04:05:34.016Z,82.53
2019-03-23T04:08:11.835Z,82.75
2019-03-23T04:10:47.466Z,81.37
2019-03-23T04:13:23.326Z,78.80
2019-03-23T04:15:59.164Z,80.12
2019-03-23T04:18:35.166Z,77.35
2019-03-23T04:21:11.080Z,74.82
2019-03-23T04:23:46.929Z,76.62
2019-03-23T04:26:22.787Z,76.02
2019-03-23T04:28:58.642Z,75.03
2019-03-23T04:31:34.515Z,79.22
2019-03-23T04:34:11.052Z,79.05
2019-03-23T04:36:46.923Z,80.38
2019-03-23T04:39:22.773Z,79.85
2019-03-23T04:41:58.629Z,81.67
2019-03-23T04:44:34.476Z,83.58
2019-03-23T04:47:10.542Z,83.95
2019-03-23T04:49:46.399Z,86.15
2019-03-23T04:52:22.254Z,83.95
2019-03-23T04:54:58.113Z,81.10
2019-03-23T04:57:33.967Z,80.38
2019-03-23T05:00:12.689Z,79.90
2019-03-23T05:02:49.563Z,77.32
2019-03-23T05:05:27.053Z,77.72
2019-03-23T05:08:03.727Z,75.32
2019-03-23T05:10:39.572Z,71.80
2019-03-23T05:13:16.179Z,73.95
2019-03-23T05:15:52.026Z,81.28
2019-03-23T05:18:27.864Z,85.67
2019-03-23T05:21:03.717Z,85.17
2019-03-23T05:23:40.579Z,99.15
2019-03-23T05:26:16.451Z,94.00
2019-03-23T05:28:52.287Z,92.88
2019-03-23T05:31:28.821Z,88.78
2019-03-23T05:34:04.616Z,85.00
2019-03-23T05:36:40.417Z,82.65
2019-03-23T05:39:17.557Z,81.57
2019-03-23T05:41:53.413Z,79.42
2019-03-23T05:44:29.264Z,78.45
2019-03-23T05:47:05.214Z,79.45
2019-03-23T05:49:41.588Z,81.78
2019-03-23T05:52:17.436Z,80.00
2019-03-23T05:54:53.494Z,79.60
2019-03-23T05:57:29.344Z,76.15
2019-03-23T06:00:07.652Z,75.70
2019-03-23T06:02:43.519Z,77.22
2019-03-23T06:05:19.263Z,75.97
2019-03-23T06:08:05.049Z,77.80
2019-03-23T06:10:40.914Z,77.80
2019-03-23T06:13:16.761Z,76.55
2019-03-23T06:15:52.613Z,80.85
2019-03-23T06:18:29.044Z,79.62
2019-03-23T06:21:04.944Z,82.20
2019-03-23T06:23:42.020Z,81.67
2019-03-23T06:26:17.879Z,82.17
2019-03-23T06:28:54.003Z,83.27
2019-03-23T06:31:29.792Z,82.15
2019-03-23T06:34:05.640Z,83.33
2019-03-23T06:36:41.493Z,82.05
2019-03-23T06:39:18.317Z,82.22
2019-03-23T06:41:54.152Z,81.75
2019-03-23T06:44:29.972Z,82.45
2019-03-23T06:47:05.837Z,85.15
2019-03-23T06:49:41.699Z,85.45
2019-03-23T06:52:17.648Z,84.58
2019-03-23T06:54:53.709Z,80.40
2019-03-23T06:57:29.814Z,80.87
2019-03-23T07:00:11.468Z,81.57
2019-03-23T07:02:47.649Z,78.72
2019-03-23T07:05:23.602Z,81.37
2019-03-23T07:07:59.525Z,82.53
2019-03-23T07:10:35.491Z,81.40
2019-03-23T07:13:11.271Z,82.72
2019-03-23T07:15:47.094Z,80.65
2019-03-23T07:18:22.936Z,83.03
2019-03-23T07:20:58.742Z,79.25
2019-03-23T07:23:34.760Z,81.45
2019-03-23T07:26:11.180Z,80.50
2019-03-23T07:28:47.053Z,81.80
2019-03-23T07:31:22.815Z,80.75
2019-03-23T07:33:58.628Z,80.72
2019-03-23T07:36:34.664Z,78.85
2019-03-23T07:39:10.487Z,80.45
2019-03-23T07:41:46.267Z,79.95
2019-03-23T07:44:22.103Z,78.83
2019-03-23T07:46:57.890Z,82.45
2019-03-23T07:49:34.051Z,83.25
2019-03-23T07:52:10.259Z,81.92
2019-03-23T07:54:46.107Z,82.17
2019-03-23T07:57:21.889Z,83.05
2019-03-23T07:59:58.749Z,80.40
2019-03-23T08:02:34.726Z,79.35
2019-03-23T08:05:10.549Z,79.95
2019-03-23T08:07:46.430Z,81.65
2019-03-23T08:10:32.708Z,82.77
2019-03-23T08:13:08.923Z,84.10
2019-03-23T08:15:44.715Z,84.97
2019-03-23T08:18:20.586Z,87.47
2019-03-23T08:20:56.688Z,86.02
2019-03-23T08:23:32.478Z,80.47
2019-03-23T08:26:08.341Z,78.40
2019-03-23T08:28:44.314Z,81.47
2019-03-23T08:31:20.222Z,80.67
2019-03-23T08:33:56.173Z,79.50
2019-03-23T08:36:31.974Z,73.60
2019-03-23T08:39:08.236Z,76.87
2019-03-23T08:41:45.522Z,78.57
2019-03-23T08:44:21.488Z,78.57
2019-03-23T08:46:57.345Z,81.42
2019-03-23T08:49:33.106Z,79.62
2019-03-23T08:52:08.943Z,81.95
2019-03-23T08:54:44.908Z,77.37
2019-03-23T08:57:20.748Z,79.97
2019-03-23T08:59:56.910Z,75.72
2019-03-23T09:02:32.741Z,72.60
2019-03-23T09:05:08.626Z,74.50
2019-03-23T09:07:44.770Z,72.82
2019-03-23T09:10:20.621Z,71.97
2019-03-23T09:12:56.368Z,71.33
2019-03-23T09:15:32.247Z,71.30
2019-03-23T09:18:08.677Z,73.05
2019-03-23T09:20:44.560Z,72.67
2019-03-23T09:23:20.417Z,72.05
2019-03-23T09:25:56.266Z,84.17
2019-03-23T09:28:32.131Z,79.40
2019-03-23T09:31:07.998Z,80.80
2019-03-23T09:33:43.838Z,81.08
2019-03-23T09:36:22.978Z,81.90
2019-03-23T09:38:57.291Z,86.47
2019-03-23T09:41:33.067Z,85.05
2019-03-23T09:44:09.118Z,80.83
2019-03-23T09:46:44.888Z,85.67
2019-03-23T09:49:22.077Z,82.37
2019-03-23T09:51:57.978Z,84.32
2019-03-23T09:54:34.286Z,83.50
2019-03-23T09:57:10.428Z,85.92
2019-03-23T09:59:46.162Z,84.55
2019-03-23T10:02:21.939Z,87.75
2019-03-23T10:04:57.800Z,98.12
2019-03-23T10:07:34.724Z,94.75
2019-03-23T10:10:21.031Z,91.27
2019-03-23T10:12:48.310Z,87.60
2019-03-23T10:15:24.318Z,91.08
2019-03-23T10:18:01.685Z,92.22
2019-03-23T10:20:37.548Z,92.35
2019-03-23T10:23:13.323Z,96.50
2019-03-23T10:25:49.158Z,96.00
2019-03-23T10:28:24.942Z,94.00
2019-03-23T10:31:00.724Z,90.25
2019-03-23T10:33:36.716Z,91.92
2019-03-23T10:36:13.120Z,91.37
2019-03-23T10:38:48.935Z,96.67
2019-03-23T10:41:24.713Z,92.15
2019-03-23T10:44:00.776Z,90.57
2019-03-23T10:46:36.568Z,90.92
2019-03-23T10:49:12.920Z,88.17
2019-03-23T10:51:48.689Z,88.55
2019-03-23T10:54:24.487Z,86.95
2019-03-23T10:57:00.302Z,93.17
2019-03-23T10:59:36.395Z,87.37
2019-03-23T11:02:12.157Z,89.40
2019-03-23T11:04:47.978Z,88.97
2019-03-23T11:07:24.141Z,90.03
2019-03-23T11:09:59.937Z,86.97
2019-03-23T11:12:37.145Z,86.02
2019-03-23T11:15:13.108Z,85.75
2019-03-23T11:17:48.923Z,83.50
2019-03-23T11:20:29.075Z,85.32
2019-03-23T11:23:04.871Z,82.27
2019-03-23T11:25:40.644Z,85.32
2019-03-23T11:28:16.424Z,87.62
2019-03-23T11:30:52.325Z,121.22
2019-03-23T11:33:28.149Z,89.77
2019-03-23T11:36:04.000Z,86.25
2019-03-23T11:38:39.851Z,80.97
2019-03-23T11:41:15.650Z,86.97
2019-03-23T11:43:51.456Z,89.28
2019-03-23T11:46:27.433Z,80.65
2019-03-23T11:49:03.265Z,80.53
2019-03-23T11:51:39.458Z,72.75
2019-03-23T11:54:15.318Z,94.30
2019-03-23T11:56:51.628Z,88.37
2019-03-23T11:59:28.072Z,78.40
2019-03-23T12:02:04.136Z,75.05
2019-03-23T12:04:39.969Z,74.32
2019-03-23T12:07:15.712Z,77.53
2019-03-23T12:09:51.478Z,70.75
2019-03-23T12:12:27.231Z,70.42
2019-03-23T12:15:03.034Z,70.42
2019-03-23T12:17:38.794Z,66.80
2019-03-23T12:20:14.750Z,66.80
2019-03-23T12:22:50.531Z,67.62
2019-03-23T12:25:26.329Z,71.67
2019-03-23T12:28:02.114Z,69.70
2019-03-23T12:30:37.886Z,62.20
2019-03-23T12:33:13.644Z,63.08
2019-03-23T12:35:49.446Z,61.02
2019-03-23T12:38:25.312Z,59.20
2019-03-23T12:41:10.165Z,55.92
2019-03-23T12:43:38.601Z,55.30
2019-03-23T12:46:14.364Z,49.00
2019-03-23T12:48:50.186Z,48.58
2019-03-23T12:51:25.969Z,48.30
2019-03-23T12:54:01.771Z,49.10
2019-03-23T12:56:37.786Z,47.25
2019-03-23T12:59:13.918Z,40.70
2019-03-23T13:01:49.704Z,37.93
2019-03-23T13:04:25.546Z,63.92
2019-03-23T13:07:01.294Z,39.20
2019-03-23T13:09:37.035Z,39.30
2019-03-23T13:12:12.816Z,35.38
2019-03-23T13:14:48.565Z,34.65
2019-03-23T13:17:24.378Z,34.55
2019-03-23T13:20:00.355Z,35.45
2019-03-23T13:22:36.242Z,36.48
2019-03-23T13:25:12.138Z,34.38
2019-03-23T13:27:48.999Z,32.90
2019-03-23T13:30:24.880Z,34.98
2019-03-23T13:33:00.740Z,34.25
2019-03-23T13:35:36.852Z,34.65
2019-03-23T13:38:13.161Z,35.70
2019-03-23T13:40:49.154Z,34.98
2019-03-23T13:43:24.944Z,35.70
2019-03-23T13:46:01.051Z,33.67
2019-03-23T13:48:37.239Z,34.73
2019-03-23T13:51:13.046Z,34.35
2019-03-23T13:53:48.860Z,35.45
2019-03-23T13:56:24.648Z,33.90
2019-03-23T13:59:02.255Z,38.63
2019-03-23T14:01:38.026Z,38.88
2019-03-23T14:04:13.797Z,36.03
2019-03-23T14:06:49.632Z,34.03
2019-03-23T14:09:25.440Z,36.20
2019-03-23T14:12:01.343Z,37.33
2019-03-23T14:14:37.144Z,35.55
2019-03-23T14:17:12.922Z,36.63
2019-03-23T14:19:48.822Z,36.95
2019-03-23T14:22:24.572Z,36.63
2019-03-23T14:25:00.389Z,38.20
2019-03-23T14:27:36.120Z,38.38
2019-03-23T14:30:11.972Z,38.17
2019-03-23T14:32:47.829Z,37.13
2019-03-23T14:35:23.676Z,35.48
2019-03-23T14:37:59.473Z,39.25
2019-03-23T14:40:35.293Z,37.65
2019-03-23T14:43:11.143Z,35.43
2019-03-23T14:45:46.985Z,38.42
2019-03-23T14:48:23.854Z,39.18
2019-03-23T14:50:59.649Z,36.98
2019-03-23T14:53:35.520Z,37.80
2019-03-23T14:56:11.443Z,36.25
2019-03-23T14:58:47.396Z,38.42
2019-03-23T15:01:23.242Z,34.65
2019-03-23T15:03:59.046Z,35.40
2019-03-23T15:06:34.850Z,35.43
2019-03-23T15:09:10.705Z,35.60
2019-03-23T15:11:46.674Z,33.15
2019-03-23T15:14:22.831Z,31.97
2019-03-23T15:16:59.695Z,30.02
2019-03-23T15:19:35.559Z,32.42
2019-03-23T15:22:11.437Z,30.77
2019-03-23T15:24:47.186Z,31.37
2019-03-23T15:27:22.995Z,32.55
2019-03-23T15:29:58.767Z,34.05
2019-03-23T15:32:34.637Z,32.15
2019-03-23T15:35:10.468Z,34.27
2019-03-23T15:37:46.327Z,32.75
2019-03-23T15:40:25.203Z,30.37
2019-03-23T15:43:09.147Z,30.45
2019-03-23T15:45:52.078Z,30.92
2019-03-23T15:48:31.288Z,29.72
2019-03-23T15:51:07.810Z,29.60
2019-03-23T15:53:47.474Z,31.20
2019-03-23T15:56:24.546Z,30.68
2019-03-23T15:59:00.508Z,30.77
2019-03-23T16:01:36.417Z,32.10
2019-03-23T16:04:15.157Z,33.15
2019-03-23T16:07:15.583Z,42.20
2019-03-23T16:09:55.046Z,33.08
2019-03-23T16:12:35.244Z,33.63
2019-03-23T16:15:11.678Z,36.00
2019-03-23T16:17:47.495Z,33.58
2019-03-23T16:20:25.501Z,32.73
2019-03-23T16:23:01.386Z,133.45
2019-03-23T16:25:37.172Z,320.02
2019-03-23T16:28:13.056Z,535.60
2019-03-23T16:30:49.076Z,663.27
2019-03-23T16:33:24.877Z,425.80
2019-03-23T16:36:00.671Z,455.95
2019-03-23T16:38:36.470Z,539.30
2019-03-23T16:41:13.749Z,398.75
2019-03-23T16:43:49.624Z,233.60
2019-03-23T16:46:25.420Z,416.40
2019-03-23T16:49:01.455Z,654.02
2019-03-23T16:51:37.319Z,767.12
2019-03-23T16:54:13.170Z,704.87
2019-03-23T16:56:50.045Z,522.70
2019-03-23T16:59:25.893Z,228.45
2019-03-23T17:02:02.164Z,98.22
2019-03-23T17:04:38.038Z,151.57
2019-03-23T17:07:14.232Z,158.22
2019-03-23T17:09:50.130Z,111.55
2019-03-23T17:12:25.988Z,70.03
2019-03-23T17:15:01.952Z,87.57
2019-03-23T17:17:38.208Z,84.35
2019-03-23T17:20:14.261Z,68.27
2019-03-23T17:22:50.123Z,59.53
2019-03-23T17:25:25.964Z,59.23
2019-03-23T17:28:01.820Z,70.70
2019-03-23T17:30:38.110Z,56.28
2019-03-23T17:33:15.699Z,51.70
2019-03-23T17:35:52.466Z,96.75
2019-03-23T17:38:28.517Z,84.67
2019-03-23T17:41:04.580Z,101.60
2019-03-23T17:43:40.911Z,97.40
2019-03-23T17:46:17.006Z,94.90
2019-03-23T17:48:53.076Z,76.22
2019-03-23T17:51:29.320Z,67.15
2019-03-23T17:54:05.524Z,80.77
2019-03-23T17:56:41.326Z,72.20
2019-03-23T17:59:17.202Z,92.47
2019-03-23T18:01:53.203Z,89.87
2019-03-23T18:04:29.835Z,91.63
2019-03-23T18:07:05.676Z,93.52
2019-03-23T18:09:41.537Z,90.05
2019-03-23T18:12:17.391Z,99.10
2019-03-23T18:14:53.229Z,88.97
2019-03-23T18:17:30.784Z,82.40
2019-03-23T18:20:07.251Z,89.03
2019-03-23T18:22:43.049Z,93.22
2019-03-23T18:25:18.912Z,88.07
2019-03-23T18:27:54.756Z,87.47
2019-03-23T18:30:36.665Z,89.90
2019-03-23T18:35:47.344Z,170.43
2019-03-23T18:38:23.205Z,249.70
2019-03-23T18:40:59.041Z,230.65
2019-03-23T18:43:34.904Z,133.47
2019-03-23T18:46:10.861Z,121.42
2019-03-23T18:48:46.812Z,135.72
2019-03-23T18:51:22.551Z,147.35
2019-03-23T18:53:58.416Z,136.75
2019-03-23T18:56:34.270Z,121.90
2019-03-23T18:59:11.188Z,102.65
2019-03-23T19:01:47.014Z,115.50
2019-03-23T19:04:23.073Z,114.52
2019-03-23T19:06:59.143Z,142.82
2019-03-23T19:09:35.140Z,144.07
2019-03-23T19:12:12.303Z,122.10
2019-03-23T19:14:48.097Z,114.62
2019-03-23T19:17:24.014Z,129.95
2019-03-23T19:19:59.871Z,136.03
2019-03-23T19:22:35.700Z,125.67
2019-03-23T19:25:17.226Z,129.90
2019-03-23T19:27:49.425Z,115.17
2019-03-23T19:30:25.391Z,112.45
2019-03-23T19:33:01.770Z,98.30
2019-03-23T19:35:37.552Z,93.22
2019-03-23T19:38:13.365Z,96.63
2019-03-23T19:40:49.163Z,96.32
2019-03-23T19:43:24.991Z,115.67
2019-03-23T19:46:01.308Z,96.42
2019-03-23T19:48:37.119Z,107.45
2019-03-23T19:51:13.171Z,106.03
2019-03-23T19:53:48.993Z,96.78
2019-03-23T19:56:24.781Z,95.25
2019-03-23T19:59:00.567Z,107.17
2019-03-23T20:01:36.399Z,140.37
2019-03-23T20:04:12.182Z,114.30
2019-03-23T20:06:48.263Z,91.55
2019-03-23T20:09:24.053Z,80.75
2019-03-23T20:11:59.872Z,82.35
2019-03-23T20:14:36.030Z,67.00
2019-03-23T20:17:11.840Z,71.10
2019-03-23T20:19:47.648Z,65.50
2019-03-23T20:22:23.765Z,67.25
2019-03-23T20:25:00.691Z,62.13
2019-03-23T20:27:36.636Z,61.80
2019-03-23T20:30:13.643Z,60.00
2019-03-23T20:32:49.673Z,62.95
2019-03-23T20:35:25.427Z,69.75
2019-03-23T20:38:01.221Z,79.45
2019-03-23T20:40:38.030Z,91.72
2019-03-23T20:43:14.150Z,93.75
2019-03-23T20:45:49.963Z,85.25
2019-03-23T20:48:25.831Z,75.75
2019-03-23T20:51:01.788Z,68.85
2019-03-23T20:54:02.004Z,60.48
2019-03-23T20:57:07.861Z,65.90
2019-03-23T20:59:43.914Z,66.90
2019-03-23T21:02:19.793Z,66.45
2019-03-23T21:04:55.736Z,66.47
2019-03-23T21:07:31.694Z,63.13
2019-03-23T21:10:07.670Z,63.48
2019-03-23T21:12:43.489Z,64.15
2019-03-23T21:15:19.357Z,64.37
2019-03-23T21:17:58.785Z,63.42
2019-03-23T21:20:34.765Z,61.30
2019-03-23T21:23:10.854Z,58.17
2019-03-23T21:25:46.634Z,54.90
2019-03-23T21:28:22.441Z,54.35
2019-03-23T21:30:59.790Z,54.15
2019-03-23T21:33:38.874Z,52.83
2019-03-23T21:36:13.166Z,59.40
2019-03-23T21:38:49.428Z,65.55
2019-03-23T21:41:25.192Z,59.58
2019-03-23T21:44:01.124Z,70.30
2019-03-23T21:46:37.472Z,77.27
2019-03-23T21:49:13.289Z,60.65
2019-03-23T21:51:49.096Z,62.85
2019-03-23T21:54:24.852Z,60.75
2019-03-23T21:57:00.770Z,59.65
2019-03-23T21:59:36.574Z,59.48
2019-03-23T22:02:12.448Z,59.77
2019-03-23T22:04:48.315Z,59.33
2019-03-23T22:07:24.222Z,59.15
2019-03-23T22:10:00.010Z,57.90
2019-03-23T22:12:35.908Z,58.45
2019-03-23T22:15:12.188Z,58.13
2019-03-23T22:17:48.032Z,56.75
2019-03-23T22:20:23.887Z,57.03
2019-03-23T22:22:59.953Z,57.23
2019-03-23T22:25:36.522Z,57.25
2019-03-23T22:28:12.536Z,57.33
2019-03-23T22:30:48.437Z,58.25
2019-03-23T22:33:24.606Z,62.23
2019-03-23T22:36:00.457Z,63.78
2019-03-23T22:38:36.306Z,63.38
2019-03-23T22:41:12.161Z,61.60
2019-03-23T22:43:48.007Z,61.88
2019-03-23T22:46:25.292Z,61.98
2019-03-23T22:49:01.467Z,60.20
2019-03-23T22:51:37.518Z,63.20
2019-03-23T22:54:13.371Z,63.75
2019-03-23T22:56:49.229Z,60.73
2019-03-23T22:59:26.206Z,66.20
2019-03-23T23:02:02.060Z,62.48
2019-03-23T23:04:37.921Z,60.88
2019-03-23T23:07:14.793Z,63.33
2019-03-23T23:09:50.642Z,63.28
2019-03-23T23:12:26.495Z,59.95
2019-03-23T23:15:04.883Z,61.25
2019-03-23T23:17:54.690Z,59.13
2019-03-23T23:20:32.452Z,59.98
2019-03-23T23:23:08.919Z,60.08
2019-03-23T23:25:44.811Z,59.70
2019-03-23T23:28:20.777Z,60.45
2019-03-23T23:30:57.138Z,58.20
2019-03-23T23:33:33.396Z,60.23
2019-03-23T23:36:09.976Z,58.23
2019-03-23T23:38:45.820Z,59.20
2019-03-23T23:41:21.791Z,58.00
2019-03-23T23:43:57.732Z,57.53
2019-03-23T23:46:33.507Z,56.80
2019-03-23T23:49:10.030Z,55.45
2019-03-23T23:51:50.063Z,56.98
2019-03-23T23:54:23.592Z,57.25
2019-03-23T23:56:59.734Z,57.40
2019-03-23T23:59:35.637Z,55.08
